sensor_id;sensor_type;location;lat;lon;timestamp;temperature;humidity
46732;DHT22;32477;51.474;5.696;2024-01-25T00:01:20;8.30;99.90
46732;DHT22;32477;51.474;5.696;2024-01-25T00:03:45;8.20;99.90
46732;DHT22;32477;51.474;5.696;2024-01-25T00:06:11;8.20;99.90
46732;DHT22;32477;51.474;5.696;2024-01-25T00:08:37;8.20;99.90
46732;DHT22;32477;51.474;5.696;2024-01-25T00:11:03;8.10;99.90
46732;DHT22;32477;51.474;5.696;2024-01-25T00:13:29;8.00;99.90
46732;DHT22;32477;51.474;5.696;2024-01-25T00:15:55;8.00;99.90
46732;DHT22;32477;51.474;5.696;2024-01-25T00:18:21;7.90;99.90
46732;DHT22;32477;51.474;5.696;2024-01-25T00:20:46;7.90;99.90
46732;DHT22;32477;51.474;5.696;2024-01-25T00:23:12;7.80;99.90
46732;DHT22;32477;51.474;5.696;2024-01-25T00:25:38;7.80;99.90
46732;DHT22;32477;51.474;5.696;2024-01-25T00:28:03;7.80;99.90
46732;DHT22;32477;51.474;5.696;2024-01-25T00:30:29;7.70;99.90
46732;DHT22;32477;51.474;5.696;2024-01-25T00:32:58;7.60;99.90
46732;DHT22;32477;51.474;5.696;2024-01-25T00:35:25;7.50;99.90
46732;DHT22;32477;51.474;5.696;2024-01-25T00:37:51;7.40;99.90
46732;DHT22;32477;51.474;5.696;2024-01-25T00:40:17;7.50;99.90
46732;DHT22;32477;51.474;5.696;2024-01-25T00:42:45;7.40;99.90
46732;DHT22;32477;51.474;5.696;2024-01-25T00:45:18;7.40;99.90
46732;DHT22;32477;51.474;5.696;2024-01-25T00:47:45;7.30;99.90
46732;DHT22;32477;51.474;5.696;2024-01-25T00:50:11;7.30;99.90
46732;DHT22;32477;51.474;5.696;2024-01-25T00:52:37;7.20;99.90
46732;DHT22;32477;51.474;5.696;2024-01-25T00:55:03;7.20;99.90
46732;DHT22;32477;51.474;5.696;2024-01-25T00:57:29;7.20;99.90
46732;DHT22;32477;51.474;5.696;2024-01-25T00:59:55;7.20;99.90
46732;DHT22;32477;51.474;5.696;2024-01-25T01:02:22;7.10;99.90
46732;DHT22;32477;51.474;5.696;2024-01-25T01:04:48;7.10;99.90
46732;DHT22;32477;51.474;5.696;2024-01-25T01:07:14;7.00;99.90
46732;DHT22;32477;51.474;5.696;2024-01-25T01:09:40;6.90;99.90
46732;DHT22;32477;51.474;5.696;2024-01-25T01:12:06;6.90;99.90
46732;DHT22;32477;51.474;5.696;2024-01-25T01:14:32;6.80;99.90
46732;DHT22;32477;51.474;5.696;2024-01-25T01:16:58;6.70;99.90
46732;DHT22;32477;51.474;5.696;2024-01-25T01:19:24;6.70;99.90
46732;DHT22;32477;51.474;5.696;2024-01-25T01:21:49;6.60;99.90
46732;DHT22;32477;51.474;5.696;2024-01-25T01:24:15;6.60;99.90
46732;DHT22;32477;51.474;5.696;2024-01-25T01:26:40;6.60;99.90
46732;DHT22;32477;51.474;5.696;2024-01-25T01:29:09;6.60;99.90
46732;DHT22;32477;51.474;5.696;2024-01-25T01:31:35;6.60;99.90
46732;DHT22;32477;51.474;5.696;2024-01-25T01:34:01;6.70;99.90
46732;DHT22;32477;51.474;5.696;2024-01-25T01:36:26;6.70;99.90
46732;DHT22;32477;51.474;5.696;2024-01-25T01:38:52;6.70;99.90
46732;DHT22;32477;51.474;5.696;2024-01-25T01:41:18;6.60;99.90
46732;DHT22;32477;51.474;5.696;2024-01-25T01:43:43;6.60;99.90
46732;DHT22;32477;51.474;5.696;2024-01-25T01:48:56;6.40;99.90
46732;DHT22;32477;51.474;5.696;2024-01-25T01:51:22;6.40;99.90
46732;DHT22;32477;51.474;5.696;2024-01-25T01:53:48;6.40;99.90
46732;DHT22;32477;51.474;5.696;2024-01-25T01:56:14;6.30;99.90
46732;DHT22;32477;51.474;5.696;2024-01-25T01:58:41;6.30;99.90
46732;DHT22;32477;51.474;5.696;2024-01-25T02:01:07;6.20;99.90
46732;DHT22;32477;51.474;5.696;2024-01-25T02:03:33;6.20;99.90
46732;DHT22;32477;51.474;5.696;2024-01-25T02:06:00;6.10;99.90
46732;DHT22;32477;51.474;5.696;2024-01-25T02:08:29;6.00;99.90
46732;DHT22;32477;51.474;5.696;2024-01-25T02:10:55;5.90;99.90
46732;DHT22;32477;51.474;5.696;2024-01-25T02:13:21;5.80;99.90
46732;DHT22;32477;51.474;5.696;2024-01-25T02:15:47;5.90;99.90
46732;DHT22;32477;51.474;5.696;2024-01-25T02:18:12;5.90;99.90
46732;DHT22;32477;51.474;5.696;2024-01-25T02:20:38;5.90;99.90
46732;DHT22;32477;51.474;5.696;2024-01-25T02:23:04;5.90;99.90
46732;DHT22;32477;51.474;5.696;2024-01-25T02:25:29;5.80;99.90
46732;DHT22;32477;51.474;5.696;2024-01-25T02:27:55;5.80;99.90
46732;DHT22;32477;51.474;5.696;2024-01-25T02:30:21;5.90;99.90
46732;DHT22;32477;51.474;5.696;2024-01-25T02:32:46;5.80;99.90
46732;DHT22;32477;51.474;5.696;2024-01-25T02:35:12;5.80;99.90
46732;DHT22;32477;51.474;5.696;2024-01-25T02:37:37;5.90;99.90
46732;DHT22;32477;51.474;5.696;2024-01-25T02:40:04;5.90;99.90
46732;DHT22;32477;51.474;5.696;2024-01-25T02:42:30;5.80;99.90
46732;DHT22;32477;51.474;5.696;2024-01-25T02:44:55;5.80;99.90
46732;DHT22;32477;51.474;5.696;2024-01-25T02:47:21;5.80;99.90
46732;DHT22;32477;51.474;5.696;2024-01-25T02:49:46;5.70;99.90
46732;DHT22;32477;51.474;5.696;2024-01-25T02:52:12;5.70;99.90
46732;DHT22;32477;51.474;5.696;2024-01-25T02:54:38;5.70;99.90
46732;DHT22;32477;51.474;5.696;2024-01-25T02:57:04;5.80;99.90
46732;DHT22;32477;51.474;5.696;2024-01-25T02:59:30;5.80;99.90
46732;DHT22;32477;51.474;5.696;2024-01-25T03:01:56;5.80;99.90
46732;DHT22;32477;51.474;5.696;2024-01-25T03:04:22;5.80;99.90
46732;DHT22;32477;51.474;5.696;2024-01-25T03:06:48;5.70;99.90
46732;DHT22;32477;51.474;5.696;2024-01-25T03:09:14;5.60;99.90
46732;DHT22;32477;51.474;5.696;2024-01-25T03:11:39;5.60;99.90
46732;DHT22;32477;51.474;5.696;2024-01-25T03:14:05;5.60;99.90
46732;DHT22;32477;51.474;5.696;2024-01-25T03:16:31;5.60;99.90
46732;DHT22;32477;51.474;5.696;2024-01-25T03:18:56;5.50;99.90
46732;DHT22;32477;51.474;5.696;2024-01-25T03:21:22;5.50;99.90
46732;DHT22;32477;51.474;5.696;2024-01-25T03:23:48;5.50;99.90
46732;DHT22;32477;51.474;5.696;2024-01-25T03:26:14;5.50;99.90
46732;DHT22;32477;51.474;5.696;2024-01-25T03:28:40;5.50;99.90
46732;DHT22;32477;51.474;5.696;2024-01-25T03:31:06;5.50;99.90
46732;DHT22;32477;51.474;5.696;2024-01-25T03:33:32;5.40;99.90
46732;DHT22;32477;51.474;5.696;2024-01-25T03:36:06;5.30;99.90
46732;DHT22;32477;51.474;5.696;2024-01-25T03:38:32;5.30;99.90
46732;DHT22;32477;51.474;5.696;2024-01-25T03:40:58;5.30;99.90
46732;DHT22;32477;51.474;5.696;2024-01-25T03:43:27;5.30;99.90
46732;DHT22;32477;51.474;5.696;2024-01-25T03:45:53;5.20;99.90
46732;DHT22;32477;51.474;5.696;2024-01-25T03:48:18;5.10;99.90
46732;DHT22;32477;51.474;5.696;2024-01-25T03:50:44;5.10;99.90
46732;DHT22;32477;51.474;5.696;2024-01-25T03:53:10;5.00;99.90
46732;DHT22;32477;51.474;5.696;2024-01-25T03:55:35;5.10;99.90
46732;DHT22;32477;51.474;5.696;2024-01-25T03:58:01;4.90;99.90
46732;DHT22;32477;51.474;5.696;2024-01-25T04:00:26;4.90;99.90
46732;DHT22;32477;51.474;5.696;2024-01-25T04:02:52;4.80;99.90
46732;DHT22;32477;51.474;5.696;2024-01-25T04:05:18;4.80;99.90
46732;DHT22;32477;51.474;5.696;2024-01-25T04:07:43;4.80;99.90
46732;DHT22;32477;51.474;5.696;2024-01-25T04:10:09;4.80;99.90
46732;DHT22;32477;51.474;5.696;2024-01-25T04:12:34;4.80;99.90
46732;DHT22;32477;51.474;5.696;2024-01-25T04:15:00;4.70;99.90
46732;DHT22;32477;51.474;5.696;2024-01-25T04:17:26;4.60;99.90
46732;DHT22;32477;51.474;5.696;2024-01-25T04:19:52;4.50;99.90
46732;DHT22;32477;51.474;5.696;2024-01-25T04:22:17;4.50;99.90
46732;DHT22;32477;51.474;5.696;2024-01-25T04:24:43;4.50;99.90
46732;DHT22;32477;51.474;5.696;2024-01-25T04:27:10;4.50;99.90
46732;DHT22;32477;51.474;5.696;2024-01-25T04:29:45;4.40;99.90
46732;DHT22;32477;51.474;5.696;2024-01-25T04:32:12;4.40;99.90
46732;DHT22;32477;51.474;5.696;2024-01-25T04:34:38;4.30;99.90
46732;DHT22;32477;51.474;5.696;2024-01-25T04:37:03;4.30;99.90
46732;DHT22;32477;51.474;5.696;2024-01-25T04:39:29;4.40;99.90
46732;DHT22;32477;51.474;5.696;2024-01-25T04:41:55;4.40;99.90
46732;DHT22;32477;51.474;5.696;2024-01-25T04:44:20;4.50;99.90
46732;DHT22;32477;51.474;5.696;2024-01-25T04:46:46;4.40;99.90
46732;DHT22;32477;51.474;5.696;2024-01-25T04:49:12;4.40;99.90
46732;DHT22;32477;51.474;5.696;2024-01-25T04:51:37;4.40;99.90
46732;DHT22;32477;51.474;5.696;2024-01-25T04:54:03;4.40;99.90
46732;DHT22;32477;51.474;5.696;2024-01-25T04:56:29;4.40;99.90
46732;DHT22;32477;51.474;5.696;2024-01-25T04:58:54;4.30;99.90
46732;DHT22;32477;51.474;5.696;2024-01-25T05:01:20;4.20;99.90
46732;DHT22;32477;51.474;5.696;2024-01-25T05:03:46;4.30;99.90
46732;DHT22;32477;51.474;5.696;2024-01-25T05:06:11;4.50;99.90
46732;DHT22;32477;51.474;5.696;2024-01-25T05:08:38;4.50;99.90
46732;DHT22;32477;51.474;5.696;2024-01-25T05:11:04;4.40;99.90
46732;DHT22;32477;51.474;5.696;2024-01-25T05:13:29;4.30;99.90
46732;DHT22;32477;51.474;5.696;2024-01-25T05:15:55;4.30;99.90
46732;DHT22;32477;51.474;5.696;2024-01-25T05:18:21;4.30;99.90
46732;DHT22;32477;51.474;5.696;2024-01-25T05:20:46;4.30;99.90
46732;DHT22;32477;51.474;5.696;2024-01-25T05:23:12;4.30;99.90
46732;DHT22;32477;51.474;5.696;2024-01-25T05:25:38;4.30;99.90
46732;DHT22;32477;51.474;5.696;2024-01-25T05:28:03;4.30;99.90
46732;DHT22;32477;51.474;5.696;2024-01-25T05:30:29;4.30;99.90
46732;DHT22;32477;51.474;5.696;2024-01-25T05:32:55;4.30;99.90
46732;DHT22;32477;51.474;5.696;2024-01-25T05:35:21;4.30;99.90
46732;DHT22;32477;51.474;5.696;2024-01-25T05:37:46;4.30;99.90
46732;DHT22;32477;51.474;5.696;2024-01-25T05:40:12;4.30;99.90
46732;DHT22;32477;51.474;5.696;2024-01-25T05:42:39;4.20;99.90
46732;DHT22;32477;51.474;5.696;2024-01-25T05:45:05;4.30;99.90
46732;DHT22;32477;51.474;5.696;2024-01-25T05:47:31;4.20;99.90
46732;DHT22;32477;51.474;5.696;2024-01-25T05:49:57;4.20;99.90
46732;DHT22;32477;51.474;5.696;2024-01-25T05:52:23;4.20;99.90
46732;DHT22;32477;51.474;5.696;2024-01-25T05:54:49;4.10;99.90
46732;DHT22;32477;51.474;5.696;2024-01-25T05:57:15;4.10;99.90
46732;DHT22;32477;51.474;5.696;2024-01-25T05:59:41;4.10;99.90
46732;DHT22;32477;51.474;5.696;2024-01-25T06:02:07;4.10;99.90
46732;DHT22;32477;51.474;5.696;2024-01-25T06:04:34;4.10;99.90
46732;DHT22;32477;51.474;5.696;2024-01-25T06:06:59;4.00;99.90
46732;DHT22;32477;51.474;5.696;2024-01-25T06:09:25;3.90;99.90
46732;DHT22;32477;51.474;5.696;2024-01-25T06:11:51;3.90;99.90
46732;DHT22;32477;51.474;5.696;2024-01-25T06:14:17;3.90;99.90
46732;DHT22;32477;51.474;5.696;2024-01-25T06:16:43;3.80;99.90
46732;DHT22;32477;51.474;5.696;2024-01-25T06:19:10;3.80;99.90
46732;DHT22;32477;51.474;5.696;2024-01-25T06:21:36;3.70;99.90
46732;DHT22;32477;51.474;5.696;2024-01-25T06:24:03;3.50;99.90
46732;DHT22;32477;51.474;5.696;2024-01-25T06:26:29;3.60;99.90
46732;DHT22;32477;51.474;5.696;2024-01-25T06:28:55;3.60;99.90
46732;DHT22;32477;51.474;5.696;2024-01-25T06:31:22;3.60;99.90
46732;DHT22;32477;51.474;5.696;2024-01-25T06:33:48;3.40;99.90
46732;DHT22;32477;51.474;5.696;2024-01-25T06:36:16;3.20;99.90
46732;DHT22;32477;51.474;5.696;2024-01-25T06:38:42;3.10;99.90
46732;DHT22;32477;51.474;5.696;2024-01-25T06:41:08;2.90;99.90
46732;DHT22;32477;51.474;5.696;2024-01-25T06:43:34;2.80;99.90
46732;DHT22;32477;51.474;5.696;2024-01-25T06:46:00;2.90;99.90
46732;DHT22;32477;51.474;5.696;2024-01-25T06:48:25;2.90;99.90
46732;DHT22;32477;51.474;5.696;2024-01-25T06:50:51;2.90;99.90
46732;DHT22;32477;51.474;5.696;2024-01-25T06:53:17;2.60;99.90
46732;DHT22;32477;51.474;5.696;2024-01-25T06:55:43;3.00;99.90
46732;DHT22;32477;51.474;5.696;2024-01-25T06:58:08;3.10;99.90
46732;DHT22;32477;51.474;5.696;2024-01-25T07:00:34;3.00;99.90
46732;DHT22;32477;51.474;5.696;2024-01-25T07:03:00;2.90;99.90
46732;DHT22;32477;51.474;5.696;2024-01-25T07:05:25;2.70;99.90
46732;DHT22;32477;51.474;5.696;2024-01-25T07:07:52;2.50;99.90
46732;DHT22;32477;51.474;5.696;2024-01-25T07:10:18;2.60;99.90
46732;DHT22;32477;51.474;5.696;2024-01-25T07:12:44;2.70;99.90
46732;DHT22;32477;51.474;5.696;2024-01-25T07:15:09;2.80;99.90
46732;DHT22;32477;51.474;5.696;2024-01-25T07:17:35;2.80;99.90
46732;DHT22;32477;51.474;5.696;2024-01-25T07:20:01;2.70;99.90
46732;DHT22;32477;51.474;5.696;2024-01-25T07:22:26;2.50;99.90
46732;DHT22;32477;51.474;5.696;2024-01-25T07:24:52;2.50;99.90
46732;DHT22;32477;51.474;5.696;2024-01-25T07:27:18;2.60;99.90
46732;DHT22;32477;51.474;5.696;2024-01-25T07:29:44;2.70;99.90
46732;DHT22;32477;51.474;5.696;2024-01-25T07:32:13;2.80;99.90
46732;DHT22;32477;51.474;5.696;2024-01-25T07:34:38;2.90;99.90
46732;DHT22;32477;51.474;5.696;2024-01-25T07:37:04;3.00;99.90
46732;DHT22;32477;51.474;5.696;2024-01-25T07:39:29;3.10;99.90
46732;DHT22;32477;51.474;5.696;2024-01-25T07:41:55;3.20;99.90
46732;DHT22;32477;51.474;5.696;2024-01-25T07:44:21;3.40;99.90
46732;DHT22;32477;51.474;5.696;2024-01-25T07:46:46;3.60;99.90
46732;DHT22;32477;51.474;5.696;2024-01-25T07:49:12;3.70;99.90
46732;DHT22;32477;51.474;5.696;2024-01-25T07:51:38;3.90;99.90
46732;DHT22;32477;51.474;5.696;2024-01-25T07:54:04;4.00;99.90
46732;DHT22;32477;51.474;5.696;2024-01-25T07:56:29;4.10;99.90
46732;DHT22;32477;51.474;5.696;2024-01-25T07:58:55;4.20;99.90
46732;DHT22;32477;51.474;5.696;2024-01-25T08:01:22;4.30;99.90
46732;DHT22;32477;51.474;5.696;2024-01-25T08:03:47;4.30;99.90
46732;DHT22;32477;51.474;5.696;2024-01-25T08:06:13;4.40;99.90
46732;DHT22;32477;51.474;5.696;2024-01-25T08:08:39;4.40;99.90
46732;DHT22;32477;51.474;5.696;2024-01-25T08:11:05;4.40;99.90
46732;DHT22;32477;51.474;5.696;2024-01-25T08:13:31;4.50;99.90
46732;DHT22;32477;51.474;5.696;2024-01-25T08:15:57;4.50;99.90
46732;DHT22;32477;51.474;5.696;2024-01-25T08:18:23;4.50;99.90
46732;DHT22;32477;51.474;5.696;2024-01-25T08:20:49;4.60;99.90
46732;DHT22;32477;51.474;5.696;2024-01-25T08:23:16;4.60;99.90
46732;DHT22;32477;51.474;5.696;2024-01-25T08:25:42;4.60;99.90
46732;DHT22;32477;51.474;5.696;2024-01-25T08:28:08;4.70;99.90
46732;DHT22;32477;51.474;5.696;2024-01-25T08:30:33;4.70;99.90
46732;DHT22;32477;51.474;5.696;2024-01-25T08:32:59;4.70;99.90
46732;DHT22;32477;51.474;5.696;2024-01-25T08:35:25;4.80;99.90
46732;DHT22;32477;51.474;5.696;2024-01-25T08:37:50;4.90;99.90
46732;DHT22;32477;51.474;5.696;2024-01-25T08:40:16;4.90;99.90
46732;DHT22;32477;51.474;5.696;2024-01-25T08:42:42;5.00;99.90
46732;DHT22;32477;51.474;5.696;2024-01-25T08:45:08;5.00;99.90
46732;DHT22;32477;51.474;5.696;2024-01-25T08:47:37;5.10;99.90
46732;DHT22;32477;51.474;5.696;2024-01-25T08:50:03;5.10;99.90
46732;DHT22;32477;51.474;5.696;2024-01-25T08:52:29;5.20;99.90
46732;DHT22;32477;51.474;5.696;2024-01-25T08:54:55;5.20;99.90
46732;DHT22;32477;51.474;5.696;2024-01-25T08:57:20;5.20;99.90
46732;DHT22;32477;51.474;5.696;2024-01-25T08:59:46;5.30;99.90
46732;DHT22;32477;51.474;5.696;2024-01-25T09:02:12;5.40;99.90
46732;DHT22;32477;51.474;5.696;2024-01-25T09:04:37;5.40;99.90
46732;DHT22;32477;51.474;5.696;2024-01-25T09:07:03;5.40;99.90
46732;DHT22;32477;51.474;5.696;2024-01-25T09:09:29;5.40;99.90
46732;DHT22;32477;51.474;5.696;2024-01-25T09:11:55;5.40;99.90
46732;DHT22;32477;51.474;5.696;2024-01-25T09:14:21;5.50;99.90
46732;DHT22;32477;51.474;5.696;2024-01-25T09:16:48;5.50;99.90
46732;DHT22;32477;51.474;5.696;2024-01-25T09:19:13;5.50;99.90
46732;DHT22;32477;51.474;5.696;2024-01-25T09:21:39;5.50;99.90
46732;DHT22;32477;51.474;5.696;2024-01-25T09:24:06;5.60;99.90
46732;DHT22;32477;51.474;5.696;2024-01-25T09:26:32;5.60;99.90
46732;DHT22;32477;51.474;5.696;2024-01-25T09:28:58;5.70;99.90
46732;DHT22;32477;51.474;5.696;2024-01-25T09:31:24;5.80;99.90
46732;DHT22;32477;51.474;5.696;2024-01-25T09:33:49;5.80;99.90
46732;DHT22;32477;51.474;5.696;2024-01-25T09:36:16;5.90;99.90
46732;DHT22;32477;51.474;5.696;2024-01-25T09:38:43;6.00;99.90
46732;DHT22;32477;51.474;5.696;2024-01-25T09:41:08;6.10;99.90
46732;DHT22;32477;51.474;5.696;2024-01-25T09:43:35;6.20;99.90
46732;DHT22;32477;51.474;5.696;2024-01-25T09:46:02;6.30;99.90
46732;DHT22;32477;51.474;5.696;2024-01-25T09:48:28;6.30;99.90
46732;DHT22;32477;51.474;5.696;2024-01-25T09:50:55;6.40;99.90
46732;DHT22;32477;51.474;5.696;2024-01-25T09:53:22;6.60;99.90
46732;DHT22;32477;51.474;5.696;2024-01-25T09:56:00;6.70;99.90
46732;DHT22;32477;51.474;5.696;2024-01-25T09:58:41;6.80;99.90
46732;DHT22;32477;51.474;5.696;2024-01-25T10:01:14;6.80;99.90
46732;DHT22;32477;51.474;5.696;2024-01-25T10:03:47;6.90;99.90
46732;DHT22;32477;51.474;5.696;2024-01-25T10:06:14;6.70;99.90
46732;DHT22;32477;51.474;5.696;2024-01-25T10:08:39;6.70;99.90
46732;DHT22;32477;51.474;5.696;2024-01-25T10:11:06;6.70;99.90
46732;DHT22;32477;51.474;5.696;2024-01-25T10:13:43;6.70;99.90
46732;DHT22;32477;51.474;5.696;2024-01-25T10:16:13;6.70;99.90
46732;DHT22;32477;51.474;5.696;2024-01-25T10:18:45;6.80;99.90
46732;DHT22;32477;51.474;5.696;2024-01-25T10:21:12;7.00;99.90
46732;DHT22;32477;51.474;5.696;2024-01-25T10:23:39;7.10;99.90
46732;DHT22;32477;51.474;5.696;2024-01-25T10:26:04;7.20;99.90
46732;DHT22;32477;51.474;5.696;2024-01-25T10:28:30;7.20;99.90
46732;DHT22;32477;51.474;5.696;2024-01-25T10:30:59;7.20;99.90
46732;DHT22;32477;51.474;5.696;2024-01-25T10:33:26;7.20;99.90
46732;DHT22;32477;51.474;5.696;2024-01-25T10:35:54;7.30;99.90
46732;DHT22;32477;51.474;5.696;2024-01-25T10:38:21;7.50;99.90
46732;DHT22;32477;51.474;5.696;2024-01-25T10:40:47;7.60;99.90
46732;DHT22;32477;51.474;5.696;2024-01-25T10:43:13;7.80;99.90
46732;DHT22;32477;51.474;5.696;2024-01-25T10:45:39;8.00;99.90
46732;DHT22;32477;51.474;5.696;2024-01-25T10:48:06;8.10;99.90
46732;DHT22;32477;51.474;5.696;2024-01-25T10:50:32;8.20;99.90
46732;DHT22;32477;51.474;5.696;2024-01-25T10:52:58;8.20;99.90
46732;DHT22;32477;51.474;5.696;2024-01-25T10:55:26;8.20;99.90
46732;DHT22;32477;51.474;5.696;2024-01-25T10:57:52;8.50;99.90
46732;DHT22;32477;51.474;5.696;2024-01-25T11:00:18;8.60;99.90
46732;DHT22;32477;51.474;5.696;2024-01-25T11:02:46;8.60;99.90
46732;DHT22;32477;51.474;5.696;2024-01-25T11:05:16;8.50;99.90
46732;DHT22;32477;51.474;5.696;2024-01-25T11:07:46;8.50;99.90
46732;DHT22;32477;51.474;5.696;2024-01-25T11:10:24;8.60;99.90
46732;DHT22;32477;51.474;5.696;2024-01-25T11:13:01;8.60;99.90
46732;DHT22;32477;51.474;5.696;2024-01-25T11:15:34;8.50;99.90
46732;DHT22;32477;51.474;5.696;2024-01-25T11:18:01;8.70;99.90
46732;DHT22;32477;51.474;5.696;2024-01-25T11:20:29;8.70;99.90
46732;DHT22;32477;51.474;5.696;2024-01-25T11:23:05;8.80;99.90
46732;DHT22;32477;51.474;5.696;2024-01-25T11:25:37;8.80;99.90
46732;DHT22;32477;51.474;5.696;2024-01-25T11:28:04;8.70;99.90
46732;DHT22;32477;51.474;5.696;2024-01-25T11:30:34;8.60;99.90
46732;DHT22;32477;51.474;5.696;2024-01-25T11:33:00;8.60;99.90
46732;DHT22;32477;51.474;5.696;2024-01-25T11:35:29;8.60;99.90
46732;DHT22;32477;51.474;5.696;2024-01-25T11:37:55;8.60;99.90
46732;DHT22;32477;51.474;5.696;2024-01-25T11:40:21;8.60;99.90
46732;DHT22;32477;51.474;5.696;2024-01-25T11:42:50;8.70;99.90
46732;DHT22;32477;51.474;5.696;2024-01-25T11:45:17;8.70;99.90
46732;DHT22;32477;51.474;5.696;2024-01-25T11:47:43;8.80;99.90
46732;DHT22;32477;51.474;5.696;2024-01-25T11:50:11;8.80;99.90
46732;DHT22;32477;51.474;5.696;2024-01-25T11:52:37;8.80;99.90
46732;DHT22;32477;51.474;5.696;2024-01-25T11:55:07;8.80;99.90
46732;DHT22;32477;51.474;5.696;2024-01-25T11:57:42;8.90;99.90
46732;DHT22;32477;51.474;5.696;2024-01-25T12:00:09;8.80;99.90
46732;DHT22;32477;51.474;5.696;2024-01-25T12:02:39;8.80;99.90
46732;DHT22;32477;51.474;5.696;2024-01-25T12:05:06;8.90;99.90
46732;DHT22;32477;51.474;5.696;2024-01-25T12:07:32;8.90;99.90
46732;DHT22;32477;51.474;5.696;2024-01-25T12:10:06;8.80;99.90
46732;DHT22;32477;51.474;5.696;2024-01-25T12:12:32;8.80;99.90
46732;DHT22;32477;51.474;5.696;2024-01-25T12:15:03;8.70;99.90
46732;DHT22;32477;51.474;5.696;2024-01-25T12:17:30;8.70;99.90
46732;DHT22;32477;51.474;5.696;2024-01-25T12:19:59;8.70;99.90
46732;DHT22;32477;51.474;5.696;2024-01-25T12:22:29;8.70;99.90
46732;DHT22;32477;51.474;5.696;2024-01-25T12:24:56;8.70;99.90
46732;DHT22;32477;51.474;5.696;2024-01-25T12:27:22;8.70;99.90
46732;DHT22;32477;51.474;5.696;2024-01-25T12:29:51;8.80;99.90
46732;DHT22;32477;51.474;5.696;2024-01-25T12:32:22;8.70;99.90
46732;DHT22;32477;51.474;5.696;2024-01-25T12:34:58;8.70;99.90
46732;DHT22;32477;51.474;5.696;2024-01-25T12:37:24;8.70;99.90
46732;DHT22;32477;51.474;5.696;2024-01-25T12:39:52;8.70;99.90
46732;DHT22;32477;51.474;5.696;2024-01-25T12:42:19;8.70;99.90
46732;DHT22;32477;51.474;5.696;2024-01-25T12:44:45;8.90;99.90
46732;DHT22;32477;51.474;5.696;2024-01-25T12:47:11;8.90;99.90
46732;DHT22;32477;51.474;5.696;2024-01-25T12:49:41;8.90;99.90
46732;DHT22;32477;51.474;5.696;2024-01-25T12:52:11;8.90;99.90
46732;DHT22;32477;51.474;5.696;2024-01-25T12:54:38;8.90;99.90
46732;DHT22;32477;51.474;5.696;2024-01-25T12:57:04;9.10;99.90
46732;DHT22;32477;51.474;5.696;2024-01-25T12:59:31;9.10;99.90
46732;DHT22;32477;51.474;5.696;2024-01-25T13:01:57;9.10;99.90
46732;DHT22;32477;51.474;5.696;2024-01-25T13:04:23;9.10;99.90
46732;DHT22;32477;51.474;5.696;2024-01-25T13:06:49;9.10;99.90
46732;DHT22;32477;51.474;5.696;2024-01-25T13:09:14;9.10;99.90
46732;DHT22;32477;51.474;5.696;2024-01-25T13:11:41;9.20;99.90
46732;DHT22;32477;51.474;5.696;2024-01-25T13:14:07;9.20;99.90
46732;DHT22;32477;51.474;5.696;2024-01-25T13:16:33;9.30;99.90
46732;DHT22;32477;51.474;5.696;2024-01-25T13:18:59;9.30;99.90
46732;DHT22;32477;51.474;5.696;2024-01-25T13:21:24;9.30;99.90
46732;DHT22;32477;51.474;5.696;2024-01-25T13:23:50;9.20;99.90
46732;DHT22;32477;51.474;5.696;2024-01-25T13:26:16;9.00;99.90
46732;DHT22;32477;51.474;5.696;2024-01-25T13:28:41;8.90;99.90
46732;DHT22;32477;51.474;5.696;2024-01-25T13:31:07;8.80;99.90
46732;DHT22;32477;51.474;5.696;2024-01-25T13:33:33;8.80;99.90
46732;DHT22;32477;51.474;5.696;2024-01-25T13:35:58;8.70;99.90
46732;DHT22;32477;51.474;5.696;2024-01-25T13:38:24;8.70;99.90
46732;DHT22;32477;51.474;5.696;2024-01-25T13:40:50;8.70;99.90
46732;DHT22;32477;51.474;5.696;2024-01-25T13:43:16;8.60;99.90
46732;DHT22;32477;51.474;5.696;2024-01-25T13:45:41;8.70;99.90
46732;DHT22;32477;51.474;5.696;2024-01-25T13:48:07;8.70;99.90
46732;DHT22;32477;51.474;5.696;2024-01-25T13:50:33;8.70;99.90
46732;DHT22;32477;51.474;5.696;2024-01-25T13:52:59;8.70;99.90
46732;DHT22;32477;51.474;5.696;2024-01-25T13:55:24;8.70;99.90
46732;DHT22;32477;51.474;5.696;2024-01-25T13:57:50;8.70;99.90
46732;DHT22;32477;51.474;5.696;2024-01-25T14:00:16;8.70;99.90
46732;DHT22;32477;51.474;5.696;2024-01-25T14:02:41;8.70;99.90
46732;DHT22;32477;51.474;5.696;2024-01-25T14:05:11;8.70;99.90
46732;DHT22;32477;51.474;5.696;2024-01-25T14:07:37;8.70;99.90
46732;DHT22;32477;51.474;5.696;2024-01-25T14:10:03;8.70;99.90
46732;DHT22;32477;51.474;5.696;2024-01-25T14:12:29;8.60;99.90
46732;DHT22;32477;51.474;5.696;2024-01-25T14:14:54;8.70;99.90
46732;DHT22;32477;51.474;5.696;2024-01-25T14:17:20;8.70;99.90
46732;DHT22;32477;51.474;5.696;2024-01-25T14:19:47;8.70;99.90
46732;DHT22;32477;51.474;5.696;2024-01-25T14:22:13;8.70;99.90
46732;DHT22;32477;51.474;5.696;2024-01-25T14:24:39;8.70;99.90
46732;DHT22;32477;51.474;5.696;2024-01-25T14:27:04;8.70;99.90
46732;DHT22;32477;51.474;5.696;2024-01-25T14:29:30;8.70;99.90
46732;DHT22;32477;51.474;5.696;2024-01-25T14:31:59;8.70;99.90
46732;DHT22;32477;51.474;5.696;2024-01-25T14:34:25;8.70;99.90
46732;DHT22;32477;51.474;5.696;2024-01-25T14:36:51;8.70;99.90
46732;DHT22;32477;51.474;5.696;2024-01-25T14:39:17;8.70;99.90
46732;DHT22;32477;51.474;5.696;2024-01-25T14:41:46;8.80;99.90
46732;DHT22;32477;51.474;5.696;2024-01-25T14:44:12;8.80;99.90
46732;DHT22;32477;51.474;5.696;2024-01-25T14:46:37;8.80;99.90
46732;DHT22;32477;51.474;5.696;2024-01-25T14:49:04;8.80;99.90
46732;DHT22;32477;51.474;5.696;2024-01-25T14:51:30;8.80;99.90
46732;DHT22;32477;51.474;5.696;2024-01-25T14:53:56;8.80;99.90
46732;DHT22;32477;51.474;5.696;2024-01-25T14:56:21;8.60;99.90
46732;DHT22;32477;51.474;5.696;2024-01-25T14:58:47;8.60;99.90
46732;DHT22;32477;51.474;5.696;2024-01-25T15:01:16;8.50;99.90
46732;DHT22;32477;51.474;5.696;2024-01-25T15:03:48;8.50;99.90
46732;DHT22;32477;51.474;5.696;2024-01-25T15:06:13;8.40;99.90
46732;DHT22;32477;51.474;5.696;2024-01-25T15:08:39;8.40;99.90
46732;DHT22;32477;51.474;5.696;2024-01-25T15:11:06;8.40;99.90
46732;DHT22;32477;51.474;5.696;2024-01-25T15:13:32;8.40;99.90
46732;DHT22;32477;51.474;5.696;2024-01-25T15:15:58;8.30;99.90
46732;DHT22;32477;51.474;5.696;2024-01-25T15:18:23;8.30;99.90
46732;DHT22;32477;51.474;5.696;2024-01-25T15:20:49;8.30;99.90
46732;DHT22;32477;51.474;5.696;2024-01-25T15:23:17;8.30;99.90
46732;DHT22;32477;51.474;5.696;2024-01-25T15:25:42;8.30;99.90
46732;DHT22;32477;51.474;5.696;2024-01-25T15:28:08;8.30;99.90
46732;DHT22;32477;51.474;5.696;2024-01-25T15:30:34;8.30;99.90
46732;DHT22;32477;51.474;5.696;2024-01-25T15:32:59;8.30;99.90
46732;DHT22;32477;51.474;5.696;2024-01-25T15:35:27;8.40;99.90
46732;DHT22;32477;51.474;5.696;2024-01-25T15:37:53;8.30;99.90
46732;DHT22;32477;51.474;5.696;2024-01-25T15:40:18;8.30;99.90
46732;DHT22;32477;51.474;5.696;2024-01-25T15:42:44;8.30;99.90